Time;durP1;ratioP1;P1;durP2;ratioP2;P2;SDS_P1;SDS_P2;PMS_P1;PMS_P2;Temp;Humidity;BMP_temperature;BMP_pressure;BME280_temperature;BME280_humidity;BME280_pressure;Samples;Min_cycle;Max_cycle;Signal;HPM_P1;HPM_P2
2022/03/27 00:01:41;;;;;;;22.02;10.98;;;;;;;1.24;68.73;95917.25;5107897;28;20036;-43
2022/03/27 00:04:09;;;;;;;24.20;13.02;;;;;;;1.16;69.11;95914.63;5108438;28;20122;-43
2022/03/27 00:06:36;;;;;;;25.67;11.23;;;;;;;1.19;69.07;95915.13;5108154;28;20056;-44
2022/03/27 00:09:03;;;;;;;28.33;11.70;;;;;;;1.16;69.42;95910.28;5110565;28;20043;-44
2022/03/27 00:11:31;;;;;;;29.02;11.95;;;;;;;1.20;69.51;95911.59;5107199;28;20120;-44
2022/03/27 00:14:02;;;;;;;23.52;11.63;;;;;;;1.13;69.00;95913.97;5107244;28;20040;-44
2022/03/27 00:16:30;;;;;;;24.70;12.05;;;;;;;1.07;68.68;95909.38;5106860;28;20119;-45
2022/03/27 00:18:58;;;;;;;27.52;10.55;;;;;;;1.02;69.28;95908.22;5110266;28;20040;-43
2022/03/27 00:21:25;;;;;;;25.77;12.25;;;;;;;0.95;68.64;95911.38;5106866;28;20754;-42
2022/03/27 00:23:53;;;;;;;29.75;9.63;;;;;;;0.78;68.03;95912.13;5107681;28;20097;-43
2022/03/27 00:26:21;;;;;;;19.27;10.68;;;;;;;0.63;68.86;95909.25;5108266;28;20048;-47
2022/03/27 00:28:49;;;;;;;21.42;10.02;;;;;;;0.47;69.72;95898.78;5107980;28;20044;-47
2022/03/27 00:31:17;;;;;;;18.23;10.10;;;;;;;0.50;70.55;95908.75;5087650;28;20093;-47
2022/03/27 00:33:45;;;;;;;22.77;11.80;;;;;;;0.46;70.79;95897.97;5107906;28;20071;-47
2022/03/27 00:36:14;;;;;;;23.63;11.98;;;;;;;0.46;71.27;95897.97;5107386;28;20492;-45
2022/03/27 00:38:42;;;;;;;60.30;25.65;;;;;;;0.47;71.70;95896.22;5109118;28;20050;-51
2022/03/27 00:41:09;;;;;;;38.45;18.73;;;;;;;0.51;71.30;95895.78;5107695;28;20595;-49
2022/03/27 00:43:36;;;;;;;38.85;17.38;;;;;;;0.55;70.98;95892.00;5106276;28;20166;-46
2022/03/27 00:46:03;;;;;;;39.58;18.80;;;;;;;0.53;71.00;95891.31;5106075;28;20114;-45
2022/03/27 00:48:30;;;;;;;34.33;15.45;;;;;;;0.48;71.27;95890.94;5108273;28;20118;-46
2022/03/27 00:50:57;;;;;;;27.92;13.13;;;;;;;0.40;71.70;95898.56;5107373;28;20044;-46
2022/03/27 00:53:24;;;;;;;27.17;13.60;;;;;;;0.28;71.49;95890.22;5106950;28;20047;-46
2022/03/27 00:55:51;;;;;;;28.83;12.38;;;;;;;0.23;72.04;95891.59;5107354;28;20064;-46
2022/03/27 00:58:18;;;;;;;31.08;12.65;;;;;;;0.07;73.05;95895.53;5111786;28;20047;-44
2022/03/27 01:00:48;;;;;;;28.70;13.23;;;;;;;0.02;73.08;95884.94;5107556;28;20070;-45
2022/03/27 01:03:20;;;;;;;26.45;11.88;;;;;;;-0.06;73.47;95877.13;5107378;28;20987;-48
2022/03/27 01:05:48;;;;;;;24.92;12.85;;;;;;;-0.15;73.20;95883.88;5111340;27;20474;-49
2022/03/27 01:08:16;;;;;;;28.25;12.52;;;;;;;-0.26;73.71;95881.47;5112256;27;20119;-45
2022/03/27 01:10:43;;;;;;;28.10;11.10;;;;;;;-0.32;74.00;95887.16;5109669;27;20466;-45
2022/03/27 01:13:10;;;;;;;27.70;11.48;;;;;;;-0.43;74.14;95886.34;5111108;27;20537;-48
2022/03/27 01:15:46;;;;;;;25.50;11.20;;;;;;;-0.56;74.57;95880.69;5111711;27;20448;-44
2022/03/27 01:18:13;;;;;;;28.58;11.27;;;;;;;-0.59;75.00;95871.56;5111852;27;20503;-45
2022/03/27 01:20:41;;;;;;;28.17;11.75;;;;;;;-0.59;76.06;95884.34;5109884;27;20051;-44
2022/03/27 01:23:12;;;;;;;24.40;11.73;;;;;;;-0.64;76.81;95875.47;5109229;27;20035;-46
2022/03/27 01:25:40;;;;;;;26.98;10.80;;;;;;;-0.64;77.57;95878.81;5110633;27;20039;-47
2022/03/27 01:28:09;;;;;;;23.83;10.57;;;;;;;-0.51;77.98;95882.88;5110190;27;20051;-46
2022/03/27 01:30:36;;;;;;;27.23;11.10;;;;;;;-0.44;78.46;95873.69;5110004;27;20092;-46
2022/03/27 01:33:05;;;;;;;29.45;11.35;;;;;;;-0.45;78.76;95866.94;5110991;27;20100;-45
2022/03/27 01:35:32;;;;;;;27.63;12.00;;;;;;;-0.37;79.73;95876.53;5106809;27;20449;-47
2022/03/27 01:37:59;;;;;;;29.95;11.32;;;;;;;-0.49;79.03;95855.38;5108289;27;20183;-46
2022/03/27 01:40:26;;;;;;;36.35;14.07;;;;;;;-0.41;79.34;95868.31;5109366;27;20055;-45
2022/03/27 01:42:55;;;;;;;36.10;15.43;;;;;;;-0.37;79.55;95869.63;5108926;27;20103;-45
2022/03/27 01:45:23;;;;;;;33.20;14.07;;;;;;;-0.35;77.94;95861.81;5109981;27;20734;-48
2022/03/27 01:47:49;;;;;;;38.88;15.13;;;;;;;-0.39;78.04;95861.28;5109070;27;20500;-45
2022/03/27 01:50:16;;;;;;;33.13;14.02;;;;;;;-0.56;78.66;95844.06;5108699;27;20104;-47
2022/03/27 01:52:43;;;;;;;61.40;22.95;;;;;;;-0.46;78.57;95870.47;5110779;27;20099;-45
2022/03/27 01:55:13;;;;;;;71.07;27.13;;;;;;;-0.51;78.84;95858.06;5106879;27;20040;-45
2022/03/27 01:57:42;;;;;;;65.00;23.52;;;;;;;-0.47;79.12;95867.09;5108506;27;20068;-46
2022/03/27 02:00:10;;;;;;;65.05;29.83;;;;;;;-0.48;79.33;95857.00;5108020;27;20089;-45
2022/03/27 02:02:40;;;;;;;55.22;24.30;;;;;;;-0.42;79.73;95861.56;5110989;27;20035;-45
2022/03/27 02:05:08;;;;;;;52.03;22.67;;;;;;;-0.42;80.09;95851.31;5107283;27;20406;-44
2022/03/27 02:07:42;;;;;;;51.53;21.55;;;;;;;-0.38;80.46;95862.91;5110245;27;20428;-46
2022/03/27 02:10:09;;;;;;;48.72;19.17;;;;;;;-0.33;79.98;95865.84;5111783;27;20458;-47
2022/03/27 02:12:36;;;;;;;41.38;19.35;;;;;;;-0.34;80.10;95869.38;5107869;27;20067;-45
2022/03/27 02:15:08;;;;;;;46.58;18.85;;;;;;;-0.34;79.95;95864.25;5109033;27;20035;-45
2022/03/27 02:17:38;;;;;;;48.25;20.70;;;;;;;-0.35;81.33;95862.63;5114806;27;20043;-46
2022/03/27 02:20:07;;;;;;;63.05;23.52;;;;;;;-0.37;81.28;95854.28;5110211;27;20500;-48
2022/03/27 02:22:34;;;;;;;53.88;22.20;;;;;;;-0.25;80.07;95860.88;5109347;27;20040;-50
2022/03/27 02:25:01;;;;;;;46.97;20.05;;;;;;;-0.21;79.84;95864.75;5108510;27;20049;-46
2022/03/27 02:27:27;;;;;;;67.50;26.55;;;;;;;-0.25;80.00;95865.97;5109582;27;20056;-51
2022/03/27 02:29:54;;;;;;;53.70;20.48;;;;;;;-0.25;79.10;95878.78;5107669;27;20056;-49
2022/03/27 02:32:21;;;;;;;39.80;16.20;;;;;;;-0.28;78.65;95884.19;5109356;27;20113;-46
2022/03/27 02:34:48;;;;;;;36.88;15.73;;;;;;;-0.29;77.36;95882.56;5109210;27;20449;-47
2022/03/27 02:37:15;;;;;;;35.65;15.85;;;;;;;-0.38;77.38;95883.38;5110905;27;20043;-50
2022/03/27 02:39:44;;;;;;;27.25;13.02;;;;;;;-0.42;76.92;95894.84;5110417;27;20504;-46
2022/03/27 02:42:10;;;;;;;40.42;14.45;;;;;;;-0.63;77.95;95869.38;5107596;27;20127;-47
2022/03/27 02:44:37;;;;;;;47.42;17.70;;;;;;;-0.52;78.26;95896.59;5107252;27;20160;-47
2022/03/27 02:47:05;;;;;;;41.88;14.70;;;;;;;-0.59;78.11;95892.03;5109563;27;20051;-45
2022/03/27 02:49:32;;;;;;;48.22;17.20;;;;;;;-0.67;78.93;95894.44;5110293;27;20639;-47
2022/03/27 02:51:59;;;;;;;45.13;17.90;;;;;;;-0.66;78.92;95895.25;5108027;27;20077;-47
2022/03/27 02:54:26;;;;;;;38.17;17.23;;;;;;;-0.78;79.15;95897.13;5111488;27;20059;-48
2022/03/27 02:56:53;;;;;;;60.08;23.67;;;;;;;-0.78;79.00;95903.06;5109521;27;20046;-47
2022/03/27 02:59:21;;;;;;;60.95;26.42;;;;;;;-0.84;78.86;95900.25;5107614;27;20043;-45
2022/03/27 03:01:48;;;;;;;41.15;19.08;;;;;;;-0.85;79.33;95901.16;5106676;27;20126;-46
2022/03/27 03:04:16;;;;;;;33.08;15.68;;;;;;;-0.93;79.16;95909.53;5105358;27;20050;-51
2022/03/27 03:06:43;;;;;;;26.83;11.88;;;;;;;-0.97;79.64;95908.97;5107957;27;20051;-47
2022/03/27 03:09:10;;;;;;;22.42;11.60;;;;;;;-0.98;79.88;95893.75;5110943;27;20044;-48
2022/03/27 03:11:37;;;;;;;26.20;12.13;;;;;;;-0.99;80.02;95900.63;5107482;27;20059;-45
2022/03/27 03:14:04;;;;;;;33.78;11.82;;;;;;;-0.93;79.80;95906.16;5110515;27;20418;-48
2022/03/27 03:16:52;;;;;;;37.85;13.10;;;;;;;-0.93;79.83;95908.72;5115565;27;20465;-48
2022/03/27 03:19:18;;;;;;;32.28;14.02;;;;;;;-0.96;80.29;95904.66;5109605;27;20072;-49
2022/03/27 03:21:45;;;;;;;30.40;13.30;;;;;;;-0.97;80.64;95914.09;5112780;27;20066;-49
2022/03/27 03:24:12;;;;;;;28.65;10.68;;;;;;;-1.01;81.36;95907.63;5109131;27;20043;-48
2022/03/27 03:26:39;;;;;;;26.85;10.48;;;;;;;-0.98;81.59;95902.22;5108510;27;20122;-49
2022/03/27 03:29:06;;;;;;;24.10;9.98;;;;;;;-1.04;81.63;95901.97;5106181;27;20059;-47
2022/03/27 03:31:32;;;;;;;27.92;11.55;;;;;;;-1.07;82.16;95903.03;5104276;27;20059;-45
2022/03/27 03:33:59;;;;;;;26.08;11.05;;;;;;;-1.13;82.07;95903.56;5111663;27;20134;-47
2022/03/27 03:36:26;;;;;;;25.98;12.00;;;;;;;-1.14;82.61;95904.50;5106372;27;20055;-48
2022/03/27 03:38:53;;;;;;;22.40;11.65;;;;;;;-1.22;82.56;95891.59;5109996;27;20047;-49
2022/03/27 03:41:19;;;;;;;21.80;10.52;;;;;;;-1.16;83.03;95908.94;5110241;27;20066;-46
2022/03/27 03:44:07;;;;;;;21.17;10.45;;;;;;;-1.15;82.43;95915.69;5106707;27;20202;-45
2022/03/27 03:46:34;;;;;;;24.58;11.27;;;;;;;-1.21;82.45;95916.19;5106926;27;20485;-51
2022/03/27 03:49:06;;;;;;;26.15;12.38;;;;;;;-1.20;82.87;95912.69;5107336;27;20055;-48
2022/03/27 03:51:34;;;;;;;22.77;9.65;;;;;;;-1.20;82.10;95908.38;5107952;28;20066;-50
2022/03/27 03:54:08;;;;;;;25.02;10.52;;;;;;;-1.20;82.23;95907.59;5108389;28;20031;-48
2022/03/27 03:56:35;;;;;;;20.80;9.25;;;;;;;-1.28;82.42;95909.97;5106732;28;20056;-47
2022/03/27 03:59:02;;;;;;;18.58;8.52;;;;;;;-1.38;83.49;95910.78;5109465;28;20095;-47
2022/03/27 04:01:49;;;;;;;24.05;10.07;;;;;;;-1.33;83.95;95912.13;5106838;27;20059;-48
2022/03/27 04:04:16;;;;;;;21.42;9.98;;;;;;;-1.30;83.87;95911.88;5109635;28;20047;-47
2022/03/27 04:06:43;;;;;;;16.48;8.13;;;;;;;-1.32;83.99;95904.31;5096074;27;20677;-49
2022/03/27 04:09:09;;;;;;;16.33;9.18;;;;;;;-1.21;84.04;95921.31;5098876;28;20168;-46
2022/03/27 04:11:36;;;;;;;24.10;9.93;;;;;;;-1.25;83.92;95919.94;5106701;28;20047;-49
2022/03/27 04:14:03;;;;;;;22.10;8.60;;;;;;;-1.27;83.46;95926.94;5107827;28;20058;-45
2022/03/27 04:16:30;;;;;;;20.60;8.50;;;;;;;-1.30;84.21;95927.19;5108179;28;20092;-46
2022/03/27 04:18:57;;;;;;;21.83;8.10;;;;;;;-1.29;84.36;95931.38;5108812;28;20039;-47
2022/03/27 04:21:24;;;;;;;23.55;9.55;;;;;;;-1.27;84.16;95929.50;5107972;28;20036;-45
2022/03/27 04:23:51;;;;;;;30.50;12.15;;;;;;;-1.28;83.67;95930.44;5109510;28;20040;-48
2022/03/27 04:26:18;;;;;;;29.40;10.23;;;;;;;-1.30;84.35;95937.41;5108184;28;20056;-46
2022/03/27 04:28:45;;;;;;;31.73;10.93;;;;;;;-1.27;84.16;95939.72;5107343;28;20504;-44
2022/03/27 04:31:12;;;;;;;28.33;11.43;;;;;;;-1.37;84.07;95943.06;5106845;28;20039;-48
2022/03/27 04:33:39;;;;;;;18.13;9.43;;;;;;;-1.41;84.34;95946.00;5108486;28;20055;-49
2022/03/27 04:36:08;;;;;;;23.23;9.50;;;;;;;-1.40;84.85;95948.44;5104652;28;20047;-45
2022/03/27 04:38:36;;;;;;;26.30;9.77;;;;;;;-1.37;84.96;95943.06;5106331;27;20035;-49
2022/03/27 04:41:03;;;;;;;20.77;8.85;;;;;;;-1.31;85.17;95951.16;5112641;27;20044;-47
2022/03/27 04:43:30;;;;;;;30.98;9.20;;;;;;;-1.28;85.51;95948.31;5109385;27;20112;-47
2022/03/27 04:45:56;;;;;;;29.67;11.20;;;;;;;-1.20;85.45;95953.59;5110390;27;20039;-47
2022/03/27 04:48:25;;;;;;;19.60;8.70;;;;;;;-1.11;85.74;95957.94;5103645;27;20047;-48
2022/03/27 04:50:53;;;;;;;25.58;9.23;;;;;;;-1.02;85.95;95962.25;5105789;27;20078;-52
2022/03/27 04:53:20;;;;;;;22.30;10.85;;;;;;;-0.90;86.20;95962.13;5105563;27;20067;-51
2022/03/27 04:55:47;;;;;;;27.48;10.85;;;;;;;-0.78;85.34;95963.66;5109021;27;20039;-45
2022/03/27 04:58:15;;;;;;;23.88;9.65;;;;;;;-0.68;85.20;95974.72;5107665;27;20044;-47
2022/03/27 05:00:41;;;;;;;19.70;10.02;;;;;;;-0.56;85.33;95972.03;5111073;27;20577;-48
2022/03/27 05:03:09;;;;;;;15.85;8.40;;;;;;;-0.45;84.43;95969.31;5108500;27;20152;-47
2022/03/27 05:05:35;;;;;;;25.98;9.63;;;;;;;-0.26;83.59;95969.31;5114445;27;20854;-46
2022/03/27 05:08:02;;;;;;;26.60;9.70;;;;;;;-0.12;83.09;95975.00;5111484;27;20065;-45
2022/03/27 05:10:29;;;;;;;30.30;10.75;;;;;;;-0.06;83.45;95979.56;5110659;27;20051;-49
2022/03/27 05:12:56;;;;;;;23.10;10.93;;;;;;;0.08;83.22;95976.59;5110543;27;20101;-49
2022/03/27 05:15:23;;;;;;;34.97;10.35;;;;;;;0.24;82.69;95977.78;5110939;27;20373;-49
2022/03/27 05:17:58;;;;;;;24.95;11.57;;;;;;;0.38;81.84;95982.47;5110686;27;20071;-48
2022/03/27 05:20:27;;;;;;;34.42;13.10;;;;;;;0.49;81.19;95984.06;5111010;27;20617;-49
2022/03/27 05:22:55;;;;;;;39.78;17.48;;;;;;;0.66;80.76;95985.06;5109456;27;20044;-49
2022/03/27 05:25:22;;;;;;;37.22;16.00;;;;;;;0.78;80.19;95989.06;5090181;28;20104;-47
2022/03/27 05:27:52;;;;;;;42.92;18.55;;;;;;;0.93;80.14;95991.97;5110323;27;20059;-46
2022/03/27 05:30:21;;;;;;;58.78;26.75;;;;;;;1.03;79.48;95979.09;5107577;27;20048;-48
2022/03/27 05:32:50;;;;;;;58.78;25.05;;;;;;;1.30;79.47;95994.47;5109731;27;20140;-44
2022/03/27 05:35:17;;;;;;;66.38;24.85;;;;;;;1.55;78.28;95997.31;5109489;27;20052;-47
2022/03/27 05:37:45;;;;;;;66.43;22.85;;;;;;;1.75;76.90;95997.13;5109203;27;20539;-45
2022/03/27 05:40:14;;;;;;;49.72;19.73;;;;;;;1.94;76.58;96007.25;5108593;27;20048;-46
2022/03/27 05:42:42;;;;;;;38.85;16.95;;;;;;;2.14;75.39;96001.97;5108600;27;20467;-47
2022/03/27 05:45:10;;;;;;;39.63;18.08;;;;;;;2.36;74.32;96006.63;5108588;27;20038;-49
2022/03/27 05:47:43;;;;;;;47.63;17.45;;;;;;;2.54;72.35;95992.91;5109172;27;20607;-48
2022/03/27 05:50:11;;;;;;;30.00;13.93;;;;;;;2.84;71.04;96007.84;5108082;27;20074;-44
2022/03/27 05:52:38;;;;;;;37.88;16.08;;;;;;;3.00;71.08;96001.97;5108643;27;20043;-46
2022/03/27 05:55:05;;;;;;;44.53;12.10;;;;;;;3.11;69.41;96005.22;5112501;27;20046;-47
2022/03/27 05:57:32;;;;;;;29.90;12.75;;;;;;;3.29;68.88;96013.66;5110658;27;20043;-44
2022/03/27 05:59:59;;;;;;;23.23;10.60;;;;;;;3.46;67.04;96014.53;5112351;27;20040;-46
2022/03/27 06:02:26;;;;;;;22.85;10.35;;;;;;;3.63;66.43;96005.84;5088402;27;20043;-44
2022/03/27 06:04:53;;;;;;;24.90;12.02;;;;;;;3.78;65.77;96015.53;5110933;27;20036;-48
2022/03/27 06:07:20;;;;;;;23.38;10.93;;;;;;;3.91;64.58;96010.75;5110605;27;20340;-45
2022/03/27 06:09:47;;;;;;;33.17;13.32;;;;;;;4.01;63.98;96008.78;5109805;27;20043;-46
2022/03/27 06:12:14;;;;;;;28.13;11.30;;;;;;;4.14;63.07;96008.34;5110041;27;20044;-46
2022/03/27 06:14:41;;;;;;;31.75;11.75;;;;;;;4.26;63.17;96006.22;5109836;27;20032;-47
2022/03/27 06:17:08;;;;;;;26.60;13.80;;;;;;;4.43;63.65;96009.59;5109240;27;20077;-44
2022/03/27 06:19:35;;;;;;;27.10;11.77;;;;;;;4.53;63.88;96006.84;5109611;27;20496;-46
2022/03/27 06:22:02;;;;;;;24.23;11.27;;;;;;;4.60;62.83;96007.78;5109510;27;20055;-48
2022/03/27 06:24:29;;;;;;;21.63;10.38;;;;;;;4.75;62.66;96006.16;5110201;27;20051;-48
2022/03/27 06:26:55;;;;;;;20.92;11.07;;;;;;;4.92;62.43;96011.28;5110102;27;20047;-50
2022/03/27 06:29:22;;;;;;;18.50;10.20;;;;;;;5.15;61.65;96022.47;5110523;27;20051;-51
2022/03/27 06:31:49;;;;;;;20.55;9.50;;;;;;;5.24;60.14;96014.69;5110012;27;20108;-53
2022/03/27 06:34:18;;;;;;;19.42;9.63;;;;;;;5.29;59.93;96007.25;5110601;27;20101;-49
2022/03/27 06:36:45;;;;;;;20.95;10.65;;;;;;;5.42;59.63;96004.94;5110073;27;20043;-48
2022/03/27 06:39:13;;;;;;;22.40;9.52;;;;;;;5.60;59.58;96009.00;5109999;27;20044;-51
2022/03/27 06:41:40;;;;;;;23.05;9.07;;;;;;;5.80;58.67;96005.03;5108456;27;20044;-51
2022/03/27 06:44:08;;;;;;;22.23;10.73;;;;;;;5.93;58.22;96000.06;5107527;27;20065;-48
2022/03/27 06:46:35;;;;;;;20.35;9.55;;;;;;;6.17;57.62;96016.41;5107495;27;20051;-49
2022/03/27 06:49:02;;;;;;;18.05;9.02;;;;;;;6.28;58.13;95997.09;5110248;27;20559;-46
2022/03/27 06:51:29;;;;;;;28.25;10.90;;;;;;;6.50;57.34;96016.16;5111374;27;21740;-49
2022/03/27 06:53:56;;;;;;;20.58;9.95;;;;;;;6.57;57.25;96011.88;5108170;27;20505;-46
2022/03/27 06:56:22;;;;;;;20.92;9.65;;;;;;;6.30;56.22;96001.13;5109627;27;20502;-44
2022/03/27 06:58:49;;;;;;;26.77;12.10;;;;;;;6.34;56.79;96016.28;5108987;27;20047;-46
2022/03/27 07:04:02;;;;;;;16.50;8.43;;;;;;;6.63;55.77;96016.34;5107343;27;20047;-50
2022/03/27 07:06:28;;;;;;;21.25;10.02;;;;;;;6.60;56.07;96016.69;5107665;27;20036;-47
2022/03/27 07:08:55;;;;;;;28.20;8.90;;;;;;;6.74;55.46;96016.91;5107713;27;20047;-50
2022/03/27 07:11:22;;;;;;;19.63;10.82;;;;;;;6.92;55.18;96009.59;5107553;27;20040;-47
2022/03/27 07:13:49;;;;;;;19.85;9.65;;;;;;;7.10;55.10;96016.19;5107466;27;20075;-50
2022/03/27 07:16:16;;;;;;;25.75;9.65;;;;;;;7.36;55.16;96013.91;5105392;27;20047;-47
2022/03/27 07:18:49;;;;;;;22.85;9.38;;;;;;;7.58;53.80;96019.97;5105028;27;20118;-51
2022/03/27 07:21:19;;;;;;;15.98;8.55;;;;;;;7.83;52.34;96028.22;5105727;27;20053;-48
2022/03/27 07:23:46;;;;;;;18.58;10.10;;;;;;;7.97;52.27;96023.16;5106765;27;20043;-44
2022/03/27 07:26:13;;;;;;;23.38;9.52;;;;;;;8.18;51.41;96019.75;5106856;27;20043;-47
2022/03/27 07:28:40;;;;;;;19.75;9.88;;;;;;;8.43;50.16;96017.59;5107181;27;20096;-47
2022/03/27 07:31:11;;;;;;;25.60;11.25;;;;;;;8.68;48.81;96019.75;5107849;27;20489;-48
2022/03/27 07:33:38;;;;;;;17.20;8.45;;;;;;;8.97;48.38;96018.75;5107877;27;20040;-47
2022/03/27 07:36:05;;;;;;;23.38;8.23;;;;;;;9.09;48.17;96017.22;5105847;27;21327;-48
2022/03/27 07:38:32;;;;;;;14.60;7.57;;;;;;;9.33;47.29;96018.53;5108194;27;20528;-45
2022/03/27 07:40:59;;;;;;;15.68;8.23;;;;;;;9.52;46.84;96000.59;5102215;28;20044;-44
2022/03/27 07:43:27;;;;;;;14.90;6.03;;;;;;;9.88;44.96;96015.09;5105470;27;20525;-44
2022/03/27 07:45:54;;;;;;;15.20;7.15;;;;;;;9.95;44.87;95995.09;5104291;27;20057;-44
2022/03/27 07:48:21;;;;;;;18.88;7.38;;;;;;;10.16;43.86;96016.75;5104920;27;20055;-47
2022/03/27 07:50:54;;;;;;;12.48;6.18;;;;;;;10.27;43.51;96016.16;5104756;27;20060;-44
2022/03/27 07:53:21;;;;;;;14.00;7.47;;;;;;;10.21;43.91;96019.53;5108238;28;20035;-50
2022/03/27 07:55:48;;;;;;;12.63;7.00;;;;;;;10.38;43.47;96020.81;5085967;28;20060;-44
2022/03/27 07:58:16;;;;;;;16.33;6.88;;;;;;;10.52;43.53;96011.97;5107275;28;20058;-44
2022/03/27 08:00:42;;;;;;;15.35;7.82;;;;;;;10.65;43.53;96011.16;5107117;27;20163;-44
2022/03/27 08:03:09;;;;;;;15.45;7.55;;;;;;;10.86;42.65;96002.31;5105049;28;20055;-43
2022/03/27 08:05:37;;;;;;;16.17;8.10;;;;;;;10.94;43.27;95987.47;5106485;28;20047;-43
2022/03/27 08:08:04;;;;;;;14.68;7.45;;;;;;;11.29;42.65;96001.03;5104122;28;20446;-51
2022/03/27 08:10:31;;;;;;;14.82;8.30;;;;;;;11.52;42.01;95995.28;5106304;28;20052;-44
2022/03/27 08:12:59;;;;;;;40.80;14.15;;;;;;;11.82;41.66;95994.75;5106942;27;20055;-45
2022/03/27 08:15:26;;;;;;;15.02;7.88;;;;;;;12.08;41.05;95998.22;5111694;27;20050;-45
2022/03/27 08:17:54;;;;;;;13.98;6.78;;;;;;;12.38;39.71;95988.75;5109951;27;20505;-43
2022/03/27 08:20:24;;;;;;;9.63;5.57;;;;;;;12.76;37.63;95987.81;5109891;27;20054;-44
2022/03/27 08:22:51;;;;;;;14.07;7.25;;;;;;;12.92;37.57;95972.59;5111150;27;20405;-47
2022/03/27 08:28:04;;;;;;;11.68;6.60;;;;;;;13.39;35.87;95967.66;5111115;27;20141;-45
2022/03/27 08:30:31;;;;;;;12.15;7.85;;;;;;;13.40;35.76;95964.03;5112911;27;20596;-47
2022/03/27 08:32:58;;;;;;;14.15;5.20;;;;;;;13.60;35.47;95978.69;5113794;27;20046;-44
2022/03/27 08:35:25;;;;;;;19.13;7.78;;;;;;;13.61;35.70;95975.03;5113341;27;20039;-45
2022/03/27 08:37:52;;;;;;;13.98;6.07;;;;;;;13.89;35.02;95972.63;5111410;27;20043;-43
2022/03/27 08:40:20;;;;;;;15.50;7.32;;;;;;;13.92;34.20;95966.94;5111259;27;20124;-45
2022/03/27 08:42:48;;;;;;;16.80;6.47;;;;;;;14.05;35.06;95967.78;5111849;27;20039;-46
2022/03/27 08:45:14;;;;;;;22.75;9.98;;;;;;;14.25;35.00;95955.16;5109074;27;20047;-48
2022/03/27 08:47:41;;;;;;;14.02;6.93;;;;;;;14.45;33.74;95972.38;5108831;27;20042;-46
2022/03/27 08:50:13;;;;;;;16.13;7.25;;;;;;;14.54;33.58;95952.66;5110909;27;20082;-44
2022/03/27 08:52:52;;;;;;;12.45;6.60;;;;;;;14.74;30.78;95962.03;5111013;27;20062;-46
2022/03/27 08:55:29;;;;;;;12.38;6.05;;;;;;;14.81;30.11;95931.25;5089581;28;20039;-45
2022/03/27 08:58:00;;;;;;;12.90;5.80;;;;;;;14.93;30.87;95950.41;5111897;27;20105;-44
2022/03/27 09:00:30;;;;;;;12.98;6.88;;;;;;;15.18;30.13;95951.94;5110404;27;20040;-45
2022/03/27 09:02:58;;;;;;;12.95;6.50;;;;;;;15.18;28.97;95962.44;5111270;27;20121;-44
2022/03/27 09:05:26;;;;;;;13.65;7.28;;;;;;;15.22;29.12;95958.34;5111139;27;20096;-46
2022/03/27 09:07:54;;;;;;;12.82;6.07;;;;;;;15.41;29.38;95978.13;5111065;27;20039;-46
2022/03/27 09:10:23;;;;;;;12.55;6.68;;;;;;;15.44;28.96;95967.16;5111369;27;20051;-44
2022/03/27 09:12:51;;;;;;;16.08;7.55;;;;;;;15.66;28.63;95948.94;5112528;27;20043;-46
2022/03/27 09:15:20;;;;;;;12.48;6.30;;;;;;;15.71;27.87;95976.31;5105439;27;20050;-46
2022/03/27 09:17:58;;;;;;;15.10;8.30;;;;;;;15.80;28.08;95944.19;5108784;27;20040;-47
2022/03/27 09:20:46;;;;;;;13.98;7.75;;;;;;;15.92;28.21;95945.97;5111023;27;20057;-50
2022/03/27 09:23:22;;;;;;;18.95;8.45;;;;;;;16.17;27.93;95943.78;5112074;27;20107;-43
2022/03/27 09:25:56;;;;;;;24.48;7.65;;;;;;;16.21;27.02;95937.00;5110415;27;20039;-44
2022/03/27 09:28:41;;;;;;;18.30;8.02;;;;;;;16.36;26.74;95940.91;5110827;27;20039;-45
2022/03/27 09:31:18;;;;;;;15.00;6.25;;;;;;;16.16;26.26;95936.91;5112248;27;20043;-43
2022/03/27 09:33:56;;;;;;;13.82;5.57;;;;;;;16.19;26.66;95920.66;5111838;27;20459;-46
2022/03/27 09:36:28;;;;;;;15.77;7.32;;;;;;;16.27;27.24;95924.72;5110653;27;20039;-44
2022/03/27 09:39:20;;;;;;;14.43;7.13;;;;;;;16.35;25.49;95934.03;5111115;27;20416;-48
2022/03/27 09:41:55;;;;;;;12.93;6.38;;;;;;;16.57;25.90;95929.63;5111957;27;20043;-44
2022/03/27 09:44:29;;;;;;;15.27;8.40;;;;;;;16.74;26.24;95926.19;5108877;27;20042;-43
2022/03/27 09:46:57;;;;;;;12.27;6.75;;;;;;;16.79;25.76;95918.34;5110669;27;20138;-45
2022/03/27 09:49:30;;;;;;;15.13;7.18;;;;;;;16.87;25.52;95920.63;5111985;27;20078;-46
2022/03/27 09:52:21;;;;;;;16.50;7.28;;;;;;;16.97;25.11;95910.19;5109641;27;20409;-50
2022/03/27 09:54:54;;;;;;;16.67;8.30;;;;;;;17.19;25.24;95907.53;5098089;27;20047;-43
2022/03/27 09:57:25;;;;;;;16.20;7.65;;;;;;;17.26;24.04;95920.53;5111277;27;20063;-45
2022/03/27 09:59:53;;;;;;;15.75;7.28;;;;;;;17.10;24.02;95908.25;5110995;27;20100;-48
2022/03/27 10:02:25;;;;;;;17.38;7.25;;;;;;;17.07;24.20;95895.56;5111643;27;20461;-46
2022/03/27 10:04:55;;;;;;;17.23;7.60;;;;;;;17.07;24.15;95903.47;5110024;27;20039;-44
2022/03/27 10:07:25;;;;;;;18.05;7.13;;;;;;;17.21;24.87;95899.41;5110739;27;20418;-47
2022/03/27 10:09:53;;;;;;;13.45;7.47;;;;;;;17.32;23.95;95885.34;5110258;27;20043;-46
2022/03/27 10:12:27;;;;;;;13.35;6.72;;;;;;;17.33;23.90;95889.53;5112374;27;20047;-46
2022/03/27 10:14:59;;;;;;;14.07;6.63;;;;;;;17.26;24.11;95886.31;5109547;27;21640;-48
2022/03/27 10:17:30;;;;;;;17.58;8.30;;;;;;;17.42;23.77;95883.84;5110819;27;20551;-45
2022/03/27 10:20:01;;;;;;;13.80;7.88;;;;;;;17.27;23.42;95858.94;5109783;27;20043;-46
2022/03/27 10:22:29;;;;;;;15.07;7.93;;;;;;;17.56;23.38;95885.03;5109831;27;20039;-50
2022/03/27 10:25:01;;;;;;;16.25;7.32;;;;;;;17.55;23.76;95883.44;5110132;27;20436;-51
2022/03/27 10:27:30;;;;;;;13.20;7.13;;;;;;;17.64;23.21;95879.31;5107348;27;20043;-48
2022/03/27 10:29:59;;;;;;;14.50;6.53;;;;;;;17.89;23.20;95885.88;5109151;27;20412;-49
2022/03/27 10:32:26;;;;;;;19.23;7.00;;;;;;;17.85;23.22;95888.22;5109740;27;20543;-48
2022/03/27 10:35:18;;;;;;;20.35;8.15;;;;;;;17.91;23.22;95857.44;5110378;27;20059;-49
2022/03/27 10:37:59;;;;;;;10.57;5.18;;;;;;;17.87;23.34;95885.34;5101578;27;20951;-49
2022/03/27 10:40:39;;;;;;;16.90;7.68;;;;;;;17.92;22.72;95880.13;5109330;27;20076;-46
2022/03/27 10:43:21;;;;;;;15.82;7.95;;;;;;;18.23;23.00;95873.22;5071195;28;20038;-47
2022/03/27 10:46:15;;;;;;;13.05;5.68;;;;;;;18.46;22.38;95893.16;5104671;27;20481;-50
2022/03/27 10:48:44;;;;;;;12.60;6.18;;;;;;;18.35;22.64;95854.59;5086001;27;20043;-49
2022/03/27 10:51:25;;;;;;;11.95;6.20;;;;;;;18.19;21.46;95892.44;5109892;27;20039;-49
2022/03/27 10:54:06;;;;;;;10.10;4.72;;;;;;;18.25;21.85;95884.31;5108958;27;20112;-50
2022/03/27 10:56:51;;;;;;;16.85;7.13;;;;;;;18.31;22.50;95842.94;5106461;27;20073;-48
2022/03/27 10:59:26;;;;;;;16.73;7.10;;;;;;;18.04;22.15;95880.75;5109477;27;20039;-49
2022/03/27 11:01:55;;;;;;;15.10;6.75;;;;;;;18.25;21.90;95865.84;5109169;27;20531;-51
2022/03/27 11:04:41;;;;;;;18.75;6.72;;;;;;;18.38;21.54;95859.31;5108621;27;20047;-50
2022/03/27 11:07:20;;;;;;;14.10;8.13;;;;;;;18.46;21.62;95856.22;5107083;27;20424;-51
2022/03/27 11:09:46;;;;;;;13.93;6.38;;;;;;;18.48;21.74;95843.56;5108275;27;20043;-48
2022/03/27 11:12:22;;;;;;;12.82;6.20;;;;;;;18.69;21.32;95854.22;5108743;27;20062;-45
2022/03/27 11:14:52;;;;;;;13.77;6.18;;;;;;;18.74;20.91;95856.88;5107264;27;20047;-51
2022/03/27 11:17:44;;;;;;;11.70;5.32;;;;;;;18.57;20.59;95862.34;5108314;27;20484;-48
2022/03/27 11:20:31;;;;;;;11.75;6.45;;;;;;;18.74;21.06;95846.31;5107407;27;20043;-47
2022/03/27 11:22:59;;;;;;;13.27;6.85;;;;;;;19.06;20.87;95838.28;5107938;27;20043;-51
2022/03/27 11:25:29;;;;;;;14.52;6.00;;;;;;;19.27;20.55;95854.19;5108958;27;20058;-49
2022/03/27 11:28:02;;;;;;;12.10;5.35;;;;;;;19.11;20.65;95840.16;5107268;27;20039;-48
2022/03/27 11:30:30;;;;;;;9.55;5.13;;;;;;;18.96;20.73;95822.44;5109757;27;20043;-47
2022/03/27 11:33:19;;;;;;;7.78;4.30;;;;;;;19.20;20.83;95828.03;5109837;27;20493;-47
2022/03/27 11:36:04;;;;;;;13.65;4.78;;;;;;;19.40;20.01;95831.78;5106235;27;20039;-46
2022/03/27 11:38:33;;;;;;;14.68;6.97;;;;;;;19.41;20.11;95812.19;5072385;27;20158;-47
2022/03/27 11:41:22;;;;;;;9.90;4.80;;;;;;;19.46;19.90;95814.84;5108112;27;20474;-44